Time;durP1;ratioP1;P1;durP2;ratioP2;P2;SDS_P1;SDS_P2;PMS_P1;PMS_P2;Temp;Humidity;BMP_temperature;BMP_pressure;BME280_temperature;BME280_humidity;BME280_pressure;Samples;Min_cycle;Max_cycle;Signal;HPM_P1;HPM_P2
2023/12/27 00:02:00;;;;;;;9.17;3.37;;;;;4.40;97166.00;;;;5081058;28;20207;-65
2023/12/27 00:04:49;;;;;;;4.17;1.80;;;;;4.40;97160.00;;;;5084774;28;20216;-65
2023/12/27 00:07:39;;;;;;;9.27;3.40;;;;;3.60;97157.00;;;;5087642;28;20433;-65
2023/12/27 00:10:28;;;;;;;17.60;6.30;;;;;3.00;97160.00;;;;5084620;28;20423;-66
2023/12/27 00:13:18;;;;;;;15.67;5.33;;;;;3.70;97173.00;;;;5085057;28;20471;-65
2023/12/27 00:16:07;;;;;;;8.83;3.23;;;;;4.30;97185.00;;;;5083199;28;20212;-65
2023/12/27 00:18:56;;;;;;;5.10;2.10;;;;;4.50;97189.00;;;;5090890;28;20452;-65
2023/12/27 00:21:45;;;;;;;9.33;3.33;;;;;4.60;97201.00;;;;5082115;28;20425;-65
2023/12/27 00:24:36;;;;;;;9.23;3.30;;;;;4.70;97193.00;;;;5084274;28;20449;-65
2023/12/27 00:27:25;;;;;;;17.00;5.80;;;;;3.70;97202.00;;;;5075331;28;20227;-65
2023/12/27 00:30:14;;;;;;;9.90;3.63;;;;;3.60;97205.00;;;;5086718;28;20238;-67
2023/12/27 00:33:04;;;;;;;8.10;3.07;;;;;4.10;97209.00;;;;5085125;28;20221;-67
2023/12/27 00:35:53;;;;;;;9.47;3.47;;;;;4.10;97204.00;;;;5091009;28;20275;-67
2023/12/27 00:38:42;;;;;;;8.00;2.93;;;;;4.30;97206.00;;;;5080934;28;20426;-67
2023/12/27 00:41:33;;;;;;;12.73;4.63;;;;;3.90;97209.00;;;;5080018;28;20207;-67
2023/12/27 00:44:22;;;;;;;11.90;4.23;;;;;4.00;97203.00;;;;5087362;28;20441;-67
2023/12/27 00:47:11;;;;;;;4.43;1.77;;;;;4.00;97205.00;;;;5085928;28;20465;-67
2023/12/27 00:50:00;;;;;;;7.17;2.77;;;;;3.60;97210.00;;;;5090381;28;20199;-68
2023/12/27 00:52:49;;;;;;;7.97;3.13;;;;;2.20;97200.00;;;;5082619;28;20425;-65
2023/12/27 00:55:39;;;;;;;8.03;3.07;;;;;3.40;97212.00;;;;5077826;28;20449;-66
2023/12/27 00:58:29;;;;;;;7.83;3.17;;;;;3.70;97211.00;;;;5079778;28;20422;-66
2023/12/27 01:01:18;;;;;;;8.80;3.37;;;;;3.80;97221.00;;;;5082868;28;20798;-65
2023/12/27 01:04:07;;;;;;;8.17;3.13;;;;;3.50;97221.00;;;;5077338;28;20450;-66
2023/12/27 01:06:57;;;;;;;7.43;2.97;;;;;3.70;97240.00;;;;5089369;28;20454;-65
2023/12/27 01:09:46;;;;;;;7.07;2.83;;;;;3.30;97224.00;;;;5080378;28;20423;-66
2023/12/27 01:12:35;;;;;;;6.10;2.50;;;;;3.60;97231.00;;;;5085089;28;20203;-66
2023/12/27 01:15:25;;;;;;;10.70;4.13;;;;;3.20;97222.00;;;;5086025;28;21354;-66
2023/12/27 01:18:14;;;;;;;4.87;2.07;;;;;3.10;97233.00;;;;5084025;28;20426;-65
2023/12/27 01:21:04;;;;;;;6.27;2.53;;;;;2.90;97240.00;;;;5083578;28;20811;-65
2023/12/27 01:23:53;;;;;;;6.23;2.53;;;;;3.00;97240.00;;;;5081077;28;20809;-66
2023/12/27 01:26:42;;;;;;;6.27;2.63;;;;;3.10;97241.00;;;;5087604;28;20461;-65
2023/12/27 01:29:32;;;;;;;9.23;3.73;;;;;3.10;97241.00;;;;5080542;28;20418;-65
2023/12/27 01:32:22;;;;;;;14.47;5.63;;;;;3.30;97265.00;;;;5081233;28;20438;-65
2023/12/27 01:35:12;;;;;;;8.00;3.10;;;;;3.70;97263.00;;;;5087613;28;20829;-65
2023/12/27 01:38:01;;;;;;;5.57;2.40;;;;;3.00;97262.00;;;;5082920;28;20429;-66
2023/12/27 01:40:50;;;;;;;4.73;2.13;;;;;2.70;97266.00;;;;5084623;28;20426;-65
2023/12/27 01:43:39;;;;;;;5.27;2.23;;;;;3.00;97271.00;;;;5079963;28;20433;-65
2023/12/27 01:46:30;;;;;;;8.87;3.90;;;;;3.30;97274.00;;;;5084140;28;20473;-66
2023/12/27 01:49:21;;;;;;;10.20;4.00;;;;;3.40;97277.00;;;;5088100;28;20430;-65
2023/12/27 01:52:11;;;;;;;10.50;4.27;;;;;3.10;97276.00;;;;5083964;28;20455;-66
2023/12/27 01:55:00;;;;;;;6.47;2.70;;;;;3.10;97285.00;;;;5081525;28;20457;-66
2023/12/27 01:57:49;;;;;;;4.93;2.23;;;;;3.10;97293.00;;;;5087868;28;20421;-66
2023/12/27 02:00:38;;;;;;;8.93;3.70;;;;;3.20;97298.00;;;;5078667;28;20437;-66
2023/12/27 02:03:28;;;;;;;14.20;5.60;;;;;3.30;97300.00;;;;5084781;28;20418;-66
2023/12/27 02:06:19;;;;;;;7.13;3.10;;;;;3.00;97294.00;;;;5087297;28;20461;-65
2023/12/27 02:09:08;;;;;;;6.90;2.90;;;;;2.70;97300.00;;;;5088825;28;20942;-66
2023/12/27 02:11:57;;;;;;;5.03;2.23;;;;;2.70;97308.00;;;;5078896;28;20421;-65
2023/12/27 02:14:46;;;;;;;4.53;2.17;;;;;3.10;97316.00;;;;5086671;28;20444;-66
2023/12/27 02:17:36;;;;;;;7.23;3.00;;;;;3.20;97313.00;;;;5083422;28;20823;-65
2023/12/27 02:20:25;;;;;;;16.57;6.33;;;;;3.30;97332.00;;;;5086491;28;20474;-66
2023/12/27 02:23:19;;;;;;;7.63;3.20;;;;;2.70;97311.00;;;;5084932;28;20433;-66
2023/12/27 02:26:10;;;;;;;5.83;2.53;;;;;3.10;97312.00;;;;5079944;28;20461;-66
2023/12/27 02:29:00;;;;;;;5.67;2.33;;;;;3.10;97322.00;;;;5083593;28;20434;-66
2023/12/27 02:31:49;;;;;;;5.53;2.33;;;;;3.00;97318.00;;;;5082372;28;20846;-66
2023/12/27 02:34:38;;;;;;;5.50;2.50;;;;;2.20;97314.00;;;;5083864;28;20970;-65
2023/12/27 02:37:27;;;;;;;13.87;5.47;;;;;2.30;97317.00;;;;5084443;28;20957;-66
2023/12/27 02:40:16;;;;;;;5.37;2.33;;;;;2.50;97305.00;;;;5087967;28;20433;-65
2023/12/27 02:43:07;;;;;;;6.17;2.67;;;;;2.10;97312.00;;;;5086418;28;20432;-65
2023/12/27 02:45:56;;;;;;;7.03;3.03;;;;;1.20;97300.00;;;;5081257;28;20446;-66
2023/12/27 02:48:45;;;;;;;4.77;2.17;;;;;1.10;97296.00;;;;5082688;28;20429;-66
2023/12/27 02:51:34;;;;;;;9.53;4.23;;;;;2.30;97310.00;;;;5083976;28;20450;-66
2023/12/27 02:54:24;;;;;;;10.30;4.37;;;;;2.60;97314.00;;;;5083751;28;20442;-66
2023/12/27 02:57:13;;;;;;;3.90;1.83;;;;;2.70;97321.00;;;;5087031;28;20429;-66
2023/12/27 03:00:04;;;;;;;6.10;2.67;;;;;2.50;97314.00;;;;5085046;28;20428;-66
2023/12/27 03:02:53;;;;;;;6.93;3.03;;;;;2.30;97310.00;;;;5079086;28;20430;-65
2023/12/27 03:05:42;;;;;;;6.73;2.80;;;;;2.70;97318.00;;;;5086124;28;20442;-65
2023/12/27 03:08:31;;;;;;;7.63;3.07;;;;;3.00;97313.00;;;;5076173;28;20820;-65
2023/12/27 03:11:20;;;;;;;7.03;2.87;;;;;2.90;97322.00;;;;5085326;28;20934;-65
2023/12/27 03:14:09;;;;;;;5.73;2.33;;;;;2.70;97319.00;;;;5085572;28;20460;-65
2023/12/27 03:17:00;;;;;;;6.07;2.57;;;;;2.40;97326.00;;;;5084969;28;20429;-65
2023/12/27 03:19:49;;;;;;;4.23;1.90;;;;;2.50;97324.00;;;;5085024;28;20503;-65
2023/12/27 03:22:39;;;;;;;4.60;2.03;;;;;2.40;97321.00;;;;5077393;28;20650;-65
2023/12/27 03:25:28;;;;;;;10.43;4.17;;;;;2.50;97317.00;;;;5084139;28;20969;-65
2023/12/27 03:28:17;;;;;;;4.87;2.03;;;;;2.30;97320.00;;;;5081181;28;20473;-64
2023/12/27 03:31:06;;;;;;;5.83;2.43;;;;;2.30;97321.00;;;;5079999;28;20826;-65
2023/12/27 03:33:57;;;;;;;7.43;2.93;;;;;2.50;97323.00;;;;5080564;28;20425;-65
2023/12/27 03:36:46;;;;;;;6.00;2.60;;;;;1.80;97316.00;;;;5081166;28;21085;-65
2023/12/27 03:39:35;;;;;;;8.60;3.63;;;;;2.20;97330.00;;;;5086016;28;20478;-65
2023/12/27 03:42:24;;;;;;;8.53;3.50;;;;;2.50;97329.00;;;;5080985;28;20516;-65
2023/12/27 03:45:13;;;;;;;5.93;2.33;;;;;2.40;97322.00;;;;5085961;28;20445;-65
2023/12/27 03:48:02;;;;;;;7.77;3.10;;;;;2.20;97329.00;;;;5082701;28;20461;-65
2023/12/27 03:50:53;;;;;;;4.10;1.90;;;;;2.10;97330.00;;;;5090022;28;20421;-65
2023/12/27 03:53:42;;;;;;;4.97;2.03;;;;;2.40;97338.00;;;;5076700;28;20426;-65
2023/12/27 03:56:31;;;;;;;10.17;3.93;;;;;2.30;97330.00;;;;5091435;22;21002;-69
2023/12/27 03:59:20;;;;;;;10.03;3.63;;;;;2.30;97333.00;;;;5065334;28;20496;-69
2023/12/27 04:02:09;;;;;;;10.57;3.97;;;;;2.40;97326.00;;;;5065970;28;20434;-69
2023/12/27 04:04:59;;;;;;;7.57;2.90;;;;;2.40;97323.00;;;;5070609;28;20499;-69
2023/12/27 04:07:49;;;;;;;7.40;2.87;;;;;2.20;97325.00;;;;5042976;28;20995;-70
2023/12/27 04:10:38;;;;;;;13.40;4.60;;;;;2.00;97327.00;;;;5049498;28;20435;-70
2023/12/27 04:13:27;;;;;;;20.37;6.97;;;;;2.30;97340.00;;;;5046651;28;20424;-69
2023/12/27 04:16:16;;;;;;;7.57;2.70;;;;;2.60;97345.00;;;;5046590;28;21016;-70
2023/12/27 04:19:06;;;;;;;7.13;2.70;;;;;2.50;97345.00;;;;5043538;28;20473;-70
2023/12/27 04:21:55;;;;;;;9.73;3.43;;;;;2.60;97354.00;;;;5045345;28;20805;-70
2023/12/27 04:24:45;;;;;;;8.40;3.00;;;;;2.60;97352.00;;;;5041079;28;20495;-70
2023/12/27 04:27:34;;;;;;;15.10;5.20;;;;;2.80;97358.00;;;;5045814;28;20471;-70
2023/12/27 04:30:24;;;;;;;14.07;4.77;;;;;2.70;97357.00;;;;5045674;28;20419;-70
2023/12/27 04:33:13;;;;;;;5.63;2.10;;;;;2.80;97358.00;;;;5050660;28;20665;-70
2023/12/27 04:36:02;;;;;;;11.70;4.00;;;;;2.80;97357.00;;;;5039923;28;20443;-70
2023/12/27 04:38:51;;;;;;;8.10;2.87;;;;;2.60;97342.00;;;;5037423;28;20432;-69
2023/12/27 04:41:42;;;;;;;8.30;3.00;;;;;2.20;97357.00;;;;5043159;28;20416;-70
2023/12/27 04:44:31;;;;;;;13.63;4.50;;;;;2.00;97361.00;;;;5048604;28;20427;-70
2023/12/27 04:47:20;;;;;;;12.90;4.27;;;;;2.00;97365.00;;;;5037988;28;20423;-70
2023/12/27 04:50:10;;;;;;;10.77;3.70;;;;;1.80;97369.00;;;;5041440;28;20434;-68
2023/12/27 04:52:59;;;;;;;8.00;2.93;;;;;2.00;97381.00;;;;5044509;28;20434;-69
2023/12/27 04:55:48;;;;;;;10.83;3.77;;;;;2.20;97388.00;;;;5042289;28;20471;-71
2023/12/27 04:58:39;;;;;;;7.87;2.87;;;;;2.20;97397.00;;;;5036061;28;20424;-70
2023/12/27 05:01:28;;;;;;;17.40;5.70;;;;;2.40;97400.00;;;;5034488;28;20882;-70
2023/12/27 05:04:17;;;;;;;7.10;2.60;;;;;2.50;97386.00;;;;5035200;28;20477;-70
2023/12/27 05:07:06;;;;;;;9.37;3.27;;;;;2.30;97393.00;;;;5035911;28;20462;-70
2023/12/27 05:09:56;;;;;;;8.13;2.93;;;;;2.30;97384.00;;;;5033294;28;20428;-69
2023/12/27 05:12:45;;;;;;;8.40;2.80;;;;;2.50;97405.00;;;;5035877;28;20448;-70
2023/12/27 05:15:35;;;;;;;17.93;5.93;;;;;2.60;97401.00;;;;5035848;28;20476;-70
2023/12/27 05:18:24;;;;;;;14.83;4.90;;;;;2.50;97397.00;;;;5035015;28;21186;-69
2023/12/27 05:21:15;;;;;;;8.83;3.10;;;;;2.90;97396.00;;;;5033795;28;21177;-70
2023/12/27 05:24:04;;;;;;;10.03;3.47;;;;;3.00;97403.00;;;;5034639;28;21008;-69
2023/12/27 05:26:55;;;;;;;7.70;2.73;;;;;2.80;97401.00;;;;5042924;28;20994;-70
2023/12/27 05:29:44;;;;;;;8.80;3.10;;;;;3.10;97408.00;;;;5045289;28;20504;-70
2023/12/27 05:32:34;;;;;;;17.87;5.67;;;;;2.80;97414.00;;;;5036387;28;21070;-70
2023/12/27 05:35:24;;;;;;;15.77;5.07;;;;;3.10;97427.00;;;;5038147;28;20501;-70
2023/12/27 05:38:13;;;;;;;9.33;3.27;;;;;3.30;97428.00;;;;5038889;28;20421;-70
2023/12/27 05:41:03;;;;;;;10.13;3.47;;;;;3.30;97440.00;;;;5033368;28;20424;-70
2023/12/27 05:43:53;;;;;;;7.10;2.70;;;;;3.30;97432.00;;;;5037816;28;20419;-70
2023/12/27 05:46:42;;;;;;;6.33;2.53;;;;;3.00;97428.00;;;;5042679;28;20444;-70
2023/12/27 05:49:32;;;;;;;13.33;4.43;;;;;3.10;97429.00;;;;5044717;28;20470;-70
2023/12/27 05:52:22;;;;;;;13.00;4.30;;;;;3.10;97433.00;;;;5039578;28;20438;-68
2023/12/27 05:55:11;;;;;;;8.30;2.87;;;;;2.90;97437.00;;;;5049734;28;20471;-71
2023/12/27 05:58:00;;;;;;;9.63;3.23;;;;;2.80;97443.00;;;;5055746;28;20434;-70
2023/12/27 06:00:49;;;;;;;8.00;2.83;;;;;3.10;97445.00;;;;5046925;28;20416;-70
2023/12/27 06:03:39;;;;;;;18.33;6.00;;;;;3.00;97449.00;;;;5043278;28;20424;-70
2023/12/27 06:06:29;;;;;;;13.20;4.33;;;;;2.70;97459.00;;;;5044416;28;20451;-70
2023/12/27 06:09:18;;;;;;;8.23;2.93;;;;;2.90;97460.00;;;;5042913;28;20475;-71
2023/12/27 06:12:08;;;;;;;14.30;4.63;;;;;3.10;97466.00;;;;5039486;28;20428;-71
2023/12/27 06:14:57;;;;;;;9.73;3.27;;;;;3.10;97472.00;;;;5047284;28;20536;-70
2023/12/27 06:17:46;;;;;;;9.73;3.33;;;;;2.80;97478.00;;;;5042319;28;20423;-70
2023/12/27 06:20:36;;;;;;;23.53;7.40;;;;;2.90;97479.00;;;;5035850;28;20481;-70
2023/12/27 06:23:26;;;;;;;25.60;7.97;;;;;2.70;97474.00;;;;5041370;28;20431;-71
2023/12/27 06:26:16;;;;;;;11.03;3.73;;;;;2.40;97483.00;;;;5041168;28;20496;-70
2023/12/27 06:29:05;;;;;;;9.53;3.20;;;;;2.60;97486.00;;;;5044818;28;20835;-70
2023/12/27 06:31:54;;;;;;;12.57;4.07;;;;;2.60;97479.00;;;;5040164;28;20957;-70
2023/12/27 06:34:43;;;;;;;8.90;3.03;;;;;2.30;97484.00;;;;5042445;28;20927;-70
2023/12/27 06:37:32;;;;;;;17.83;5.80;;;;;3.00;97500.00;;;;5048660;28;20643;-71
2023/12/27 06:40:23;;;;;;;8.83;2.97;;;;;3.30;97511.00;;;;5038029;28;20456;-71
2023/12/27 06:43:12;;;;;;;8.43;2.90;;;;;3.40;97517.00;;;;5042833;28;20435;-70
2023/12/27 06:46:01;;;;;;;8.27;2.87;;;;;3.30;97520.00;;;;5045374;28;20544;-71
2023/12/27 06:48:50;;;;;;;9.63;3.27;;;;;3.40;97521.00;;;;5044578;28;20463;-71
2023/12/27 06:51:39;;;;;;;9.70;3.33;;;;;3.30;97519.00;;;;5045540;28;20501;-71
2023/12/27 06:54:29;;;;;;;17.67;5.63;;;;;3.50;97532.00;;;;5043431;28;20440;-71
2023/12/27 06:57:19;;;;;;;14.63;4.87;;;;;3.60;97534.00;;;;5047629;28;21040;-70
2023/12/27 07:00:10;;;;;;;19.67;6.23;;;;;3.60;97534.00;;;;5038004;28;20439;-70
2023/12/27 07:03:00;;;;;;;16.53;5.27;;;;;3.40;97533.00;;;;5027744;28;20444;-71
2023/12/27 07:05:49;;;;;;;14.93;4.80;;;;;3.60;97533.00;;;;5026993;28;20520;-70
2023/12/27 07:08:38;;;;;;;22.70;7.10;;;;;3.70;97541.00;;;;5030911;28;20451;-71
2023/12/27 07:11:28;;;;;;;18.17;5.77;;;;;3.60;97541.00;;;;5027268;28;20534;-70
2023/12/27 07:14:19;;;;;;;11.23;3.67;;;;;3.30;97533.00;;;;5029948;28;20952;-71
2023/12/27 07:17:08;;;;;;;15.00;4.77;;;;;3.20;97532.00;;;;5027760;28;20815;-70
2023/12/27 07:19:58;;;;;;;15.00;4.83;;;;;3.70;97556.00;;;;5028051;28;20443;-70
2023/12/27 07:22:48;;;;;;;9.27;3.23;;;;;3.90;97557.00;;;;5039384;28;20427;-71
2023/12/27 07:25:37;;;;;;;20.20;6.63;;;;;3.90;97554.00;;;;5039866;28;20443;-70
2023/12/27 07:28:26;;;;;;;13.83;4.57;;;;;3.90;97556.00;;;;5034216;28;20435;-70
2023/12/27 07:31:17;;;;;;;9.67;3.33;;;;;3.90;97559.00;;;;5037342;28;20452;-70
2023/12/27 07:34:06;;;;;;;19.37;6.30;;;;;4.20;97566.00;;;;5037451;28;20451;-69
2023/12/27 07:36:55;;;;;;;8.07;2.80;;;;;3.70;97566.00;;;;5035673;28;20452;-70
2023/12/27 07:39:44;;;;;;;9.30;3.10;;;;;3.60;97564.00;;;;5032850;28;21003;-70
2023/12/27 07:42:33;;;;;;;18.33;6.00;;;;;3.10;97568.00;;;;5026868;28;20425;-72
2023/12/27 07:45:23;;;;;;;13.57;4.37;;;;;3.50;97568.00;;;;5030187;28;20467;-70
2023/12/27 07:48:13;;;;;;;15.97;5.20;;;;;3.40;97580.00;;;;5030728;28;20534;-70
2023/12/27 07:51:03;;;;;;;9.33;3.17;;;;;3.00;97565.00;;;;5031468;28;20460;-70
2023/12/27 07:53:52;;;;;;;8.87;3.03;;;;;3.60;97567.00;;;;5032328;28;20497;-70
2023/12/27 07:56:42;;;;;;;13.63;4.60;;;;;4.10;97578.00;;;;5035399;28;20525;-70
2023/12/27 07:59:31;;;;;;;25.10;7.93;;;;;4.10;97570.00;;;;5031835;28;20440;-70
2023/12/27 08:02:21;;;;;;;10.67;3.60;;;;;4.10;97573.00;;;;5034808;28;20442;-69
2023/12/27 08:05:11;;;;;;;15.37;4.93;;;;;4.50;97588.00;;;;5034136;28;20963;-70
2023/12/27 08:08:01;;;;;;;13.17;4.30;;;;;4.50;97584.00;;;;5029455;28;20450;-70
2023/12/27 08:10:51;;;;;;;8.80;3.03;;;;;4.60;97588.00;;;;5034420;28;20474;-69
2023/12/27 08:13:40;;;;;;;16.50;5.47;;;;;4.90;97601.00;;;;5031918;28;20240;-70
2023/12/27 08:16:29;;;;;;;18.00;5.73;;;;;5.10;97607.00;;;;5031013;28;20259;-70
2023/12/27 08:19:20;;;;;;;10.43;3.53;;;;;4.90;97614.00;;;;5030910;28;20205;-70
2023/12/27 08:22:10;;;;;;;17.93;5.87;;;;;4.70;97608.00;;;;5028583;28;20205;-69
2023/12/27 08:25:00;;;;;;;15.63;5.10;;;;;4.40;97613.00;;;;5033399;28;20217;-71
2023/12/27 08:27:49;;;;;;;10.70;3.57;;;;;5.10;97615.00;;;;5026321;28;20216;-69
2023/12/27 08:30:38;;;;;;;22.70;7.37;;;;;5.30;97621.00;;;;5038808;28;20228;-70
2023/12/27 08:33:28;;;;;;;29.53;9.53;;;;;5.10;97619.00;;;;5031316;28;20208;-70
2023/12/27 08:36:18;;;;;;;9.93;3.40;;;;;5.00;97633.00;;;;5031672;28;20232;-70
2023/12/27 08:39:09;;;;;;;9.37;3.20;;;;;5.10;97637.00;;;;5036981;28;20205;-70
2023/12/27 08:41:58;;;;;;;10.23;3.50;;;;;5.30;97643.00;;;;5033474;28;20202;-69
2023/12/27 08:44:47;;;;;;;11.27;3.87;;;;;5.40;97639.00;;;;5034929;28;20251;-69
2023/12/27 08:47:36;;;;;;;14.40;4.83;;;;;5.50;97662.00;;;;5040008;28;20234;-70
2023/12/27 08:50:25;;;;;;;19.27;6.20;;;;;5.40;97653.00;;;;5040001;28;20705;-70
2023/12/27 08:53:14;;;;;;;13.43;4.57;;;;;5.70;97646.00;;;;5042381;28;20219;-70
2023/12/27 08:56:06;;;;;;;6.60;2.33;;;;;5.70;97651.00;;;;5040272;28;20741;-69
2023/12/27 08:58:55;;;;;;;8.00;2.97;;;;;5.50;97646.00;;;;5038859;28;20231;-70
2023/12/27 09:01:44;;;;;;;12.20;4.37;;;;;5.50;97649.00;;;;5034474;28;20205;-70
2023/12/27 09:04:33;;;;;;;17.33;5.80;;;;;5.70;97638.00;;;;5031392;28;20197;-69
2023/12/27 09:07:23;;;;;;;17.20;5.77;;;;;4.90;97637.00;;;;5032057;28;20197;-71
2023/12/27 09:10:12;;;;;;;12.07;4.00;;;;;5.50;97638.00;;;;5034745;28;20353;-70
2023/12/27 09:13:03;;;;;;;11.50;3.90;;;;;5.50;97642.00;;;;5037309;28;20276;-70
2023/12/27 09:15:53;;;;;;;11.40;3.93;;;;;5.40;97648.00;;;;5033212;28;20255;-70
2023/12/27 09:18:42;;;;;;;10.90;3.77;;;;;5.60;97649.00;;;;5029822;28;20237;-69
2023/12/27 09:21:31;;;;;;;12.50;4.37;;;;;5.40;97645.00;;;;5029455;28;20205;-70
2023/12/27 09:24:20;;;;;;;9.00;3.13;;;;;5.70;97659.00;;;;5033264;28;20274;-70
2023/12/27 09:27:12;;;;;;;11.40;3.87;;;;;5.70;97668.00;;;;5032830;28;20231;-70
2023/12/27 09:30:03;;;;;;;9.87;3.50;;;;;5.90;97668.00;;;;5034910;28;20701;-70
2023/12/27 09:32:52;;;;;;;7.40;2.70;;;;;6.00;97662.00;;;;5029805;28;22072;-70
2023/12/27 09:35:41;;;;;;;16.83;5.83;;;;;5.90;97657.00;;;;5031571;28;20261;-70
2023/12/27 09:38:31;;;;;;;13.10;4.47;;;;;6.50;97665.00;;;;5034996;28;20227;-70
2023/12/27 09:41:20;;;;;;;9.07;3.23;;;;;6.70;97674.00;;;;5028721;28;20204;-70
2023/12/27 09:44:11;;;;;;;10.07;3.60;;;;;6.60;97652.00;;;;5033676;28;20255;-70
2023/12/27 09:47:04;;;;;;;11.73;3.97;;;;;6.90;97661.00;;;;5033457;28;20220;-69
2023/12/27 09:49:55;;;;;;;9.00;3.13;;;;;6.90;97657.00;;;;5029885;28;20568;-72
2023/12/27 09:52:45;;;;;;;11.10;3.80;;;;;7.00;97665.00;;;;5030754;28;20201;-71
2023/12/27 09:55:34;;;;;;;26.63;8.73;;;;;7.10;97664.00;;;;5072604;22;20577;-88
2023/12/27 09:58:25;;;;;;;10.13;3.53;;;;;7.10;97654.00;;;;5056147;28;20700;-87
2023/12/27 10:01:15;;;;;;;10.17;3.53;;;;;7.00;97655.00;;;;5053555;28;20670;-87
2023/12/27 10:04:19;;;;;;;10.17;3.43;;;;;6.80;97654.00;;;;5054311;28;20689;-88
2023/12/27 10:07:09;;;;;;;11.00;3.57;;;;;7.20;97663.00;;;;5054313;28;20235;-87
2023/12/27 10:09:58;;;;;;;14.27;4.60;;;;;7.10;97661.00;;;;5067641;28;20313;-88
2023/12/27 10:12:51;;;;;;;10.10;3.30;;;;;7.00;97651.00;;;;5069892;28;20247;-88
2023/12/27 10:15:40;;;;;;;13.80;4.43;;;;;6.90;97643.00;;;;5073892;28;20200;-87
2023/12/27 10:18:30;;;;;;;16.83;5.47;;;;;7.60;97653.00;;;;5072846;28;20698;-87
2023/12/27 10:21:21;;;;;;;7.83;2.63;;;;;7.50;97647.00;;;;5076988;28;20280;-88
2023/12/27 10:24:10;;;;;;;8.27;2.70;;;;;8.10;97634.00;;;;5077026;28;20290;-87
2023/12/27 10:26:59;;;;;;;10.03;3.40;;;;;9.10;97638.00;;;;5071001;28;20228;-87
2023/12/27 10:29:49;;;;;;;12.23;4.03;;;;;9.40;97651.00;;;;5072173;28;20721;-87
2023/12/27 10:32:39;;;;;;;18.33;5.67;;;;;9.10;97633.00;;;;5066384;28;20219;-87
2023/12/27 10:35:29;;;;;;;18.47;5.63;;;;;8.80;97637.00;;;;5065384;28;20211;-87
2023/12/27 10:38:19;;;;;;;12.73;4.10;;;;;9.10;97627.00;;;;5063843;28;20212;-88
2023/12/27 10:41:09;;;;;;;15.00;4.80;;;;;9.20;97634.00;;;;5068451;28;20227;-88
2023/12/27 10:44:00;;;;;;;12.20;3.90;;;;;9.20;97623.00;;;;5066437;28;21449;-88
2023/12/27 10:46:51;;;;;;;13.53;4.33;;;;;10.20;97617.00;;;;5066570;28;20498;-87
2023/12/27 10:49:42;;;;;;;20.87;6.53;;;;;10.40;97607.00;;;;5069609;28;20476;-88
2023/12/27 10:52:32;;;;;;;26.63;8.20;;;;;11.90;97610.00;;;;5066490;28;20253;-89
2023/12/27 10:55:24;;;;;;;14.23;4.73;;;;;11.90;97599.00;;;;5074069;28;20215;-89
2023/12/27 10:58:17;;;;;;;11.20;3.73;;;;;12.20;97596.00;;;;5071765;28;20631;-89
2023/12/27 11:01:15;;;;;;;15.93;5.20;;;;;12.80;97623.00;;;;5070353;28;20230;-88
2023/12/27 11:04:09;;;;;;;10.57;3.60;;;;;12.90;97630.00;;;;5072966;28;20200;-88
2023/12/27 11:07:02;;;;;;;13.37;4.47;;;;;12.70;97617.00;;;;5071252;28;20224;-89
2023/12/27 11:09:55;;;;;;;16.57;5.50;;;;;12.00;97613.00;;;;5070121;28;20210;-88
2023/12/27 11:12:48;;;;;;;18.30;6.07;;;;;12.10;97607.00;;;;5068510;28;20189;-87
2023/12/27 11:15:39;;;;;;;27.13;12.53;;;;;12.10;97612.00;;;;5071373;28;20212;-88
2023/12/27 11:18:30;;;;;;;20.80;7.47;;;;;12.00;97599.00;;;;5074176;28;20287;-88
2023/12/27 11:21:19;;;;;;;9.40;3.30;;;;;12.40;97595.00;;;;5068398;28;20368;-86
2023/12/27 11:24:08;;;;;;;13.43;4.30;;;;;12.60;97587.00;;;;5074170;28;20231;-86
2023/12/27 11:27:01;;;;;;;9.87;3.23;;;;;12.80;97587.00;;;;5070141;28;20223;-87
2023/12/27 11:29:52;;;;;;;10.33;3.33;;;;;12.80;97583.00;;;;5074895;28;20217;-87
2023/12/27 11:32:42;;;;;;;19.17;6.07;;;;;12.60;97576.00;;;;5074356;28;20211;-88
2023/12/27 11:35:33;;;;;;;13.50;4.20;;;;;12.50;97576.00;;;;5062189;28;20203;-87
2023/12/27 11:38:27;;;;;;;10.97;3.53;;;;;12.60;97583.00;;;;5061949;28;20211;-87
2023/12/27 11:41:16;;;;;;;7.47;2.53;;;;;12.80;97580.00;;;;5058543;28;20311;-87
2023/12/27 11:44:06;;;;;;;10.43;3.27;;;;;12.90;97579.00;;;;5063823;28;20212;-87
2023/12/27 11:46:57;;;;;;;8.63;2.87;;;;;13.00;97590.00;;;;5064224;28;20231;-87
2023/12/27 11:50:19;;;;;;;8.33;2.90;;;;;13.10;97575.00;;;;5065016;28;20208;-86
2023/12/27 11:53:10;;;;;;;9.00;3.03;;;;;13.20;97570.00;;;;5064546;28;20211;-86
2023/12/27 11:56:02;;;;;;;8.40;2.80;;;;;13.20;97568.00;;;;5064292;28;20235;-86
2023/12/27 11:58:51;;;;;;;6.97;2.37;;;;;13.30;97564.00;;;;5061426;28;20204;-85
2023/12/27 12:01:42;;;;;;;12.43;4.03;;;;;13.00;97566.00;;;;5064260;28;20220;-86
2023/12/27 12:04:52;;;;;;;16.17;5.03;;;;;13.50;97569.00;;;;5064336;28;20220;-89
2023/12/27 12:12:00;;;;;;;8.00;2.73;;;;;13.50;97560.00;;;;5001398;28;20213;-87
2023/12/27 12:14:53;;;;;;;11.77;3.73;;;;;13.50;97551.00;;;;5024663;28;20211;-87
2023/12/27 12:21:30;;;;;;;11.07;3.73;;;;;13.60;97539.00;;;;5072830;28;20234;-87
2023/12/27 12:24:22;;;;;;;9.27;3.13;;;;;13.70;97533.00;;;;5069342;28;20207;-88
2023/12/27 12:27:11;;;;;;;5.43;2.00;;;;;14.10;97526.00;;;;5073766;28;20231;-87
2023/12/27 12:30:01;;;;;;;10.77;3.60;;;;;13.90;97516.00;;;;5073048;28;20197;-88
2023/12/27 12:32:50;;;;;;;9.73;3.23;;;;;13.80;97522.00;;;;5079927;28;20290;-87
2023/12/27 12:35:40;;;;;;;16.73;5.43;;;;;13.60;97514.00;;;;5076361;28;20212;-87
2023/12/27 12:38:30;;;;;;;14.33;4.60;;;;;13.40;97515.00;;;;5072536;28;20895;-87
2023/12/27 12:41:20;;;;;;;8.93;2.97;;;;;13.40;97504.00;;;;5074253;28;20204;-88
2023/12/27 12:44:10;;;;;;;9.93;3.40;;;;;13.10;97500.00;;;;5074805;28;20208;-87
2023/12/27 12:47:00;;;;;;;9.00;3.03;;;;;13.00;97494.00;;;;5077515;28;20238;-87
2023/12/27 12:49:51;;;;;;;8.40;2.97;;;;;12.50;97495.00;;;;5072728;28;20200;-88
2023/12/27 12:52:41;;;;;;;18.80;6.07;;;;;12.70;97495.00;;;;5070387;28;20204;-88
2023/12/27 12:55:32;;;;;;;15.27;5.00;;;;;12.70;97486.00;;;;5074236;28;20242;-87
2023/12/27 12:58:22;;;;;;;10.87;3.57;;;;;12.70;97490.00;;;;5077211;28;20208;-87
2023/12/27 13:01:11;;;;;;;10.40;3.47;;;;;12.50;97472.00;;;;5076457;28;20218;-87
2023/12/27 13:04:00;;;;;;;9.23;3.07;;;;;13.90;97447.00;;;;5074371;28;20216;-87
2023/12/27 13:06:50;;;;;;;8.30;2.93;;;;;14.90;97458.00;;;;5069880;28;20278;-88
2023/12/27 13:09:55;;;;;;;18.47;6.03;;;;;15.60;97452.00;;;;5073944;28;20231;-88
2023/12/27 13:12:46;;;;;;;22.87;8.30;;;;;16.10;97451.00;;;;5074687;28;20214;-88
2023/12/27 13:15:35;;;;;;;25.07;12.57;;;;;16.60;97443.00;;;;5069329;28;20209;-88
2023/12/27 13:18:25;;;;;;;14.70;10.80;;;;;16.90;97449.00;;;;5076694;28;20219;-88
2023/12/27 13:21:15;;;;;;;18.07;11.17;;;;;16.20;97444.00;;;;5075426;28;20210;-89
2023/12/27 13:24:04;;;;;;;17.73;14.13;;;;;17.80;97446.00;;;;5073494;28;20200;-89
2023/12/27 13:26:54;;;;;;;19.83;12.77;;;;;17.20;97444.00;;;;5075594;28;20232;-88
2023/12/27 13:29:44;;;;;;;27.23;18.80;;;;;18.50;97445.00;;;;5072183;28;20210;-88
2023/12/27 13:32:33;;;;;;;27.63;22.53;;;;;18.20;97467.00;;;;5072027;28;20235;-89
2023/12/27 13:35:23;;;;;;;13.97;12.30;;;;;16.90;97445.00;;;;5069612;28;20593;-87
2023/12/27 13:41:38;;;;;;;20.27;11.00;;;;;18.00;97451.00;;;;5068470;28;20240;-88
2023/12/27 13:44:29;;;;;;;13.13;9.33;;;;;18.10;97446.00;;;;5065074;28;20253;-89
2023/12/27 13:47:20;;;;;;;19.10;12.43;;;;;18.90;97444.00;;;;5064772;28;20663;-88
2023/12/27 13:50:09;;;;;;;21.83;19.83;;;;;18.60;97445.00;;;;5076440;28;20207;-90
2023/12/27 13:53:01;;;;;;;25.57;23.70;;;;;18.90;97443.00;;;;5082711;28;20224;-90
2023/12/27 13:55:50;;;;;;;20.07;18.33;;;;;18.50;97472.00;;;;5073994;28;20228;-88
2023/12/27 13:58:40;;;;;;;23.87;15.57;;;;;18.50;97453.00;;;;5067522;28;20208;-88
2023/12/27 14:01:31;;;;;;;17.50;8.90;;;;;16.70;97460.00;;;;5064023;28;20239;-88
2023/12/27 14:04:22;;;;;;;7.73;5.03;;;;;16.30;97464.00;;;;5070133;28;20274;-89
2023/12/27 14:07:11;;;;;;;12.00;5.17;;;;;15.20;97461.00;;;;5068121;28;20234;-89
2023/12/27 14:10:00;;;;;;;8.93;3.47;;;;;14.90;97465.00;;;;5064702;28;20206;-87
2023/12/27 14:12:50;;;;;;;14.77;5.03;;;;;14.70;97468.00;;;;5060679;28;20232;-87
2023/12/27 14:15:39;;;;;;;23.07;7.50;;;;;13.10;97467.00;;;;5074088;28;20200;-88
2023/12/27 14:18:29;;;;;;;10.63;3.60;;;;;13.20;97456.00;;;;5062742;28;20239;-87
2023/12/27 14:21:19;;;;;;;11.90;3.93;;;;;12.50;97459.00;;;;5065060;28;20204;-88
2023/12/27 14:24:09;;;;;;;11.93;3.90;;;;;12.60;97456.00;;;;5068965;28;20197;-87